Time;durP1;ratioP1;P1;durP2;ratioP2;P2;SDS_P1;SDS_P2;PMS_P1;PMS_P2;Temp;Humidity;BMP_temperature;BMP_pressure;BME280_temperature;BME280_humidity;BME280_pressure;Samples;Min_cycle;Max_cycle;Signal;HPM_P1;HPM_P2
2021/09/12 00:01:36;;;;;;;12.17;11.10;;;19.90;99.90;;;;;;5067635;28;20622;-77
2021/09/12 00:04:03;;;;;;;12.63;10.80;;;19.90;99.90;;;;;;5069388;28;20211;-74
2021/09/12 00:06:30;;;;;;;11.97;10.97;;;19.90;99.90;;;;;;5089510;28;20244;-75
2021/09/12 00:08:57;;;;;;;12.53;11.23;;;19.80;99.90;;;;;;5090139;28;20476;-74
2021/09/12 00:11:24;;;;;;;12.27;11.20;;;19.80;99.90;;;;;;5083613;28;20768;-74
2021/09/12 00:13:51;;;;;;;12.70;11.60;;;19.90;99.90;;;;;;5089649;28;20226;-72
2021/09/12 00:16:19;;;;;;;13.07;11.50;;;19.80;99.90;;;;;;5089259;28;20194;-73
2021/09/12 00:18:45;;;;;;;12.30;11.17;;;19.90;99.90;;;;;;5089386;28;20254;-73
2021/09/12 00:21:12;;;;;;;11.43;10.53;;;19.80;99.90;;;;;;5089459;28;20339;-73
2021/09/12 00:23:39;;;;;;;11.33;10.43;;;19.80;99.90;;;;;;5089651;28;20209;-72
2021/09/12 00:26:05;;;;;;;12.17;10.93;;;19.80;99.90;;;;;;5088931;28;20256;-73
2021/09/12 00:28:32;;;;;;;11.60;10.53;;;19.50;99.90;;;;;;5089385;28;20211;-73
2021/09/12 00:31:00;;;;;;;11.97;10.87;;;19.60;99.90;;;;;;5089512;28;20211;-73
2021/09/12 00:33:31;;;;;;;12.10;11.00;;;19.60;99.90;;;;;;5089263;28;20235;-73
2021/09/12 00:35:57;;;;;;;11.10;10.20;;;19.40;99.90;;;;;;5089290;28;20236;-73
2021/09/12 00:38:24;;;;;;;12.00;10.80;;;19.20;99.90;;;;;;5088561;28;20242;-73
2021/09/12 00:40:51;;;;;;;12.00;10.83;;;19.20;99.90;;;;;;5088855;28;20668;-73
2021/09/12 00:43:17;;;;;;;10.87;9.77;;;19.20;99.90;;;;;;5088339;28;20263;-74
2021/09/12 00:45:44;;;;;;;11.43;10.43;;;19.30;99.90;;;;;;5088996;28;20245;-73
2021/09/12 00:48:12;;;;;;;11.53;10.53;;;19.40;99.90;;;;;;5089361;28;20214;-74
2021/09/12 00:50:38;;;;;;;11.43;10.43;;;19.50;99.90;;;;;;5089212;28;20203;-74
2021/09/12 00:53:06;;;;;;;11.00;10.10;;;19.50;99.90;;;;;;5089229;28;20266;-74
2021/09/12 00:55:33;;;;;;;11.70;10.50;;;19.50;99.90;;;;;;5088955;28;20262;-75
2021/09/12 00:58:01;;;;;;;12.20;11.20;;;19.60;99.90;;;;;;5089411;28;20234;-75
2021/09/12 01:00:27;;;;;;;12.27;11.07;;;19.60;99.90;;;;;;5089100;28;20788;-74
2021/09/12 01:02:54;;;;;;;12.30;11.10;;;19.30;99.90;;;;;;5089313;28;20268;-74
2021/09/12 01:05:22;;;;;;;10.93;10.13;;;19.40;99.90;;;;;;5088900;28;20203;-74
2021/09/12 01:07:49;;;;;;;11.57;10.40;;;19.50;99.90;;;;;;5089039;28;20238;-73
2021/09/12 01:10:15;;;;;;;11.87;10.83;;;19.50;99.90;;;;;;5088463;28;20676;-74
2021/09/12 01:12:42;;;;;;;12.87;11.87;;;19.40;99.90;;;;;;5088362;28;20231;-74
2021/09/12 01:15:09;;;;;;;11.63;10.60;;;19.30;99.90;;;;;;5102803;28;20237;-74
2021/09/12 01:17:36;;;;;;;12.67;11.47;;;19.10;99.90;;;;;;5108735;28;20820;-74
2021/09/12 01:20:04;;;;;;;11.80;10.60;;;19.20;99.90;;;;;;5109044;28;20202;-74
2021/09/12 01:22:32;;;;;;;11.87;10.87;;;19.20;99.90;;;;;;5108972;28;20267;-72
2021/09/12 01:25:00;;;;;;;12.17;11.03;;;19.10;99.90;;;;;;5108985;28;20202;-72
2021/09/12 01:27:27;;;;;;;11.83;10.93;;;19.20;99.90;;;;;;5108947;28;20206;-72
2021/09/12 01:29:54;;;;;;;11.87;10.63;;;19.20;99.90;;;;;;5108930;28;20282;-72
2021/09/12 01:32:23;;;;;;;12.03;10.83;;;19.00;99.90;;;;;;5108805;28;20231;-72
2021/09/12 01:34:50;;;;;;;12.03;10.97;;;18.80;99.90;;;;;;5108944;28;20205;-72
2021/09/12 01:37:17;;;;;;;12.00;10.90;;;18.90;99.90;;;;;;5108931;28;20291;-72
2021/09/12 01:39:43;;;;;;;11.93;10.83;;;18.90;99.90;;;;;;5108731;28;20198;-73
2021/09/12 01:42:11;;;;;;;12.67;11.57;;;18.70;99.90;;;;;;5109042;28;20202;-74
2021/09/12 01:44:44;;;;;;;12.53;11.50;;;18.60;99.90;;;;;;5108355;28;20683;-72
2021/09/12 01:47:11;;;;;;;12.73;11.60;;;18.40;99.90;;;;;;5108681;28;20247;-72
2021/09/12 01:49:37;;;;;;;11.73;10.83;;;18.40;99.90;;;;;;5108702;28;20341;-72
2021/09/12 01:52:05;;;;;;;11.83;10.83;;;18.40;99.90;;;;;;5108514;28;20693;-72
2021/09/12 01:54:31;;;;;;;12.10;11.03;;;18.30;99.90;;;;;;5107997;28;20827;-74
2021/09/12 01:56:58;;;;;;;13.07;11.97;;;18.20;99.90;;;;;;5108003;28;20233;-73
2021/09/12 01:59:26;;;;;;;13.50;11.23;;;18.30;99.90;;;;;;5108474;28;20201;-74
2021/09/12 02:01:52;;;;;;;11.97;11.00;;;18.30;99.90;;;;;;5108693;28;20651;-74
2021/09/12 02:04:19;;;;;;;12.10;11.10;;;18.30;99.90;;;;;;5097132;28;20227;-73
2021/09/12 02:06:46;;;;;;;12.07;11.07;;;18.40;99.90;;;;;;5088315;28;20256;-73
2021/09/12 02:09:12;;;;;;;11.90;10.90;;;18.50;99.90;;;;;;5088161;28;20329;-73
2021/09/12 02:11:40;;;;;;;12.03;11.03;;;18.50;99.90;;;;;;5088295;28;20210;-74
2021/09/12 02:14:06;;;;;;;11.97;10.93;;;18.40;99.90;;;;;;5091270;28;20284;-73
2021/09/12 02:16:35;;;;;;;13.10;11.90;;;18.30;99.90;;;;;;5091892;28;20203;-73
2021/09/12 02:19:01;;;;;;;12.50;11.37;;;18.20;99.90;;;;;;5092037;28;20238;-73
2021/09/12 02:21:28;;;;;;;13.53;12.33;;;18.10;99.90;;;;;;5091724;28;20269;-73
2021/09/12 02:23:54;;;;;;;14.00;12.67;;;18.00;99.90;;;;;;5091943;28;20207;-73
2021/09/12 02:26:21;;;;;;;13.10;11.80;;;18.00;99.90;;;;;;5091794;28;20199;-73
2021/09/12 02:28:47;;;;;;;12.57;11.50;;;18.10;99.90;;;;;;5091629;28;20252;-73
2021/09/12 02:31:14;;;;;;;12.77;11.67;;;18.10;99.90;;;;;;5091885;28;20202;-73
2021/09/12 02:33:42;;;;;;;12.90;11.77;;;18.20;99.90;;;;;;5091538;28;20273;-80
2021/09/12 02:36:09;;;;;;;12.97;11.97;;;18.10;99.90;;;;;;5092019;28;20256;-74
2021/09/12 02:38:35;;;;;;;13.57;12.37;;;18.10;99.90;;;;;;5091956;28;20220;-74
2021/09/12 02:41:02;;;;;;;13.83;12.53;;;18.00;99.90;;;;;;5091741;28;20618;-74
2021/09/12 02:43:30;;;;;;;13.20;12.00;;;18.10;99.90;;;;;;5091789;28;20214;-74
2021/09/12 02:45:57;;;;;;;14.00;12.80;;;17.90;99.90;;;;;;5091787;28;20209;-74
2021/09/12 02:48:23;;;;;;;13.30;12.20;;;18.00;99.90;;;;;;5091881;28;20206;-74
2021/09/12 02:50:51;;;;;;;12.67;11.47;;;18.10;99.90;;;;;;5091835;28;20234;-74
2021/09/12 02:53:18;;;;;;;12.50;11.30;;;18.30;99.90;;;;;;5091391;28;20231;-73
2021/09/12 02:55:45;;;;;;;13.87;12.67;;;18.40;99.90;;;;;;5090861;28;20706;-73
2021/09/12 02:58:11;;;;;;;12.57;11.50;;;18.30;99.90;;;;;;5091175;28;20198;-73
2021/09/12 03:00:38;;;;;;;12.93;11.73;;;18.20;99.90;;;;;;5091244;28;20287;-73
2021/09/12 03:03:04;;;;;;;12.83;11.73;;;18.40;99.90;;;;;;5090776;28;20745;-73
2021/09/12 03:05:31;;;;;;;12.70;11.60;;;18.50;99.90;;;;;;5090627;28;20656;-73
2021/09/12 03:07:59;;;;;;;12.87;11.77;;;18.60;99.90;;;;;;5091165;28;20203;-75
2021/09/12 03:10:26;;;;;;;12.07;11.07;;;18.60;99.90;;;;;;5091157;28;20303;-75
2021/09/12 03:12:52;;;;;;;13.20;12.00;;;18.60;99.90;;;;;;5091011;28;20540;-74
2021/09/12 03:15:19;;;;;;;12.73;11.57;;;18.50;99.90;;;;;;5090972;28;20272;-74
2021/09/12 03:17:46;;;;;;;13.93;12.63;;;18.40;99.90;;;;;;5090813;28;20219;-74
2021/09/12 03:20:13;;;;;;;13.10;12.00;;;18.10;99.90;;;;;;5091179;28;20268;-74
2021/09/12 03:22:40;;;;;;;13.57;12.20;;;18.00;99.90;;;;;;5091011;28;20211;-74
2021/09/12 03:25:09;;;;;;;13.47;12.17;;;17.80;99.90;;;;;;5089734;28;20215;-73
2021/09/12 03:27:36;;;;;;;13.73;12.60;;;18.00;99.90;;;;;;5090655;28;20210;-72
2021/09/12 03:30:03;;;;;;;14.43;12.93;;;17.90;99.90;;;;;;5090779;28;20203;-75
2021/09/12 03:32:29;;;;;;;14.57;13.37;;;17.70;99.90;;;;;;5090833;28;20582;-76
2021/09/12 03:34:56;;;;;;;14.13;12.77;;;17.70;99.90;;;;;;5090617;28;20800;-75
2021/09/12 03:37:23;;;;;;;13.63;12.40;;;17.60;99.90;;;;;;5090393;28;20790;-75
2021/09/12 03:39:49;;;;;;;14.67;13.10;;;17.50;99.90;;;;;;5090646;28;20240;-75
2021/09/12 03:42:17;;;;;;;12.67;11.60;;;17.50;99.90;;;;;;5090774;28;20626;-76
2021/09/12 03:44:44;;;;;;;13.87;12.77;;;17.60;99.90;;;;;;5090367;28;20229;-75
2021/09/12 03:47:11;;;;;;;14.00;12.67;;;17.70;99.90;;;;;;5090800;28;20210;-75
2021/09/12 03:49:37;;;;;;;13.67;12.43;;;17.60;99.90;;;;;;5090428;28;20206;-75
2021/09/12 03:52:05;;;;;;;14.93;13.50;;;17.50;99.90;;;;;;5090737;28;20234;-76
2021/09/12 03:54:31;;;;;;;14.87;13.43;;;17.40;99.90;;;;;;5090495;28;20235;-75
2021/09/12 03:56:58;;;;;;;13.60;12.50;;;17.30;99.90;;;;;;5090170;28;20238;-75
2021/09/12 03:59:26;;;;;;;14.00;12.70;;;17.30;99.90;;;;;;5090142;28;20218;-75
2021/09/12 04:01:52;;;;;;;13.97;12.87;;;17.50;99.90;;;;;;5090597;28;20202;-75
2021/09/12 04:04:19;;;;;;;13.17;12.07;;;17.50;99.90;;;;;;5090484;28;20260;-75
2021/09/12 04:06:46;;;;;;;14.93;13.43;;;17.50;99.90;;;;;;5090369;28;20283;-75
2021/09/12 04:09:12;;;;;;;15.37;14.07;;;17.40;99.90;;;;;;5090345;28;20263;-76
2021/09/12 04:11:39;;;;;;;14.53;13.23;;;17.30;99.90;;;;;;5090276;28;20242;-73
2021/09/12 04:14:05;;;;;;;16.10;12.80;;;17.10;99.90;;;;;;5089622;28;20235;-72
2021/09/12 04:16:34;;;;;;;14.50;13.30;;;17.10;99.90;;;;;;5089247;28;20736;-71
2021/09/12 04:19:01;;;;;;;14.57;13.27;;;17.10;99.90;;;;;;5089640;28;20211;-71
2021/09/12 04:21:28;;;;;;;13.57;12.37;;;17.10;99.90;;;;;;5089078;28;20719;-72
2021/09/12 04:23:54;;;;;;;14.53;13.23;;;17.10;99.90;;;;;;5089422;28;20214;-71
2021/09/12 04:26:21;;;;;;;14.67;13.33;;;17.20;99.90;;;;;;5089321;28;20669;-71
2021/09/12 04:28:47;;;;;;;14.17;12.87;;;17.10;99.90;;;;;;5089503;28;20213;-72
2021/09/12 04:31:16;;;;;;;14.40;13.00;;;17.10;99.90;;;;;;5089333;28;20295;-71
2021/09/12 04:33:44;;;;;;;14.60;13.27;;;17.10;99.90;;;;;;5088950;28;20277;-71
2021/09/12 04:36:11;;;;;;;15.07;13.23;;;17.10;99.90;;;;;;5088837;28;20199;-71
2021/09/12 04:38:38;;;;;;;15.43;13.97;;;17.10;99.90;;;;;;5089212;28;20214;-71
2021/09/12 04:41:04;;;;;;;14.20;13.00;;;17.10;99.90;;;;;;5089259;28;20277;-71
2021/09/12 04:43:31;;;;;;;14.97;13.57;;;17.20;99.90;;;;;;5088945;28;20206;-72
2021/09/12 04:45:57;;;;;;;13.13;11.70;;;17.20;99.90;;;;;;5089012;28;20207;-72
2021/09/12 04:48:24;;;;;;;13.03;11.73;;;17.40;99.90;;;;;;5088863;28;20608;-72
2021/09/12 04:50:52;;;;;;;13.43;12.03;;;17.40;99.90;;;;;;5089065;28;20203;-73
2021/09/12 04:53:19;;;;;;;14.40;12.93;;;17.40;99.90;;;;;;5088809;28;20224;-72
2021/09/12 04:55:45;;;;;;;13.23;11.93;;;17.40;99.90;;;;;;5088470;28;20242;-73
2021/09/12 04:58:12;;;;;;;12.90;11.60;;;17.50;99.90;;;;;;5089048;28;20287;-73
2021/09/12 05:00:38;;;;;;;13.40;12.00;;;17.60;99.90;;;;;;5088692;28;20260;-73
2021/09/12 05:03:05;;;;;;;12.50;11.37;;;17.60;99.90;;;;;;5088922;28;20206;-71
2021/09/12 05:05:34;;;;;;;11.47;10.57;;;17.70;99.90;;;;;;5088899;28;20264;-71
2021/09/12 05:08:02;;;;;;;12.67;11.30;;;17.90;99.90;;;;;;5088768;28;20213;-71
2021/09/12 05:10:28;;;;;;;13.57;12.27;;;17.90;99.90;;;;;;5088102;28;20632;-74
2021/09/12 05:12:55;;;;;;;12.27;11.27;;;18.00;99.90;;;;;;5088790;28;20248;-73
2021/09/12 05:15:22;;;;;;;13.37;12.03;;;18.00;99.90;;;;;;5088406;28;20283;-73
2021/09/12 05:17:49;;;;;;;12.83;11.73;;;18.10;99.90;;;;;;5088486;28;20222;-74
2021/09/12 05:20:15;;;;;;;13.03;11.87;;;18.10;99.90;;;;;;5088725;28;20234;-74
2021/09/12 05:22:42;;;;;;;11.40;10.50;;;18.00;99.90;;;;;;5088550;28;20238;-71
2021/09/12 05:25:11;;;;;;;12.83;11.07;;;18.10;99.90;;;;;;5088360;28;20206;-70
2021/09/12 05:27:38;;;;;;;13.10;12.07;;;18.10;99.90;;;;;;5088502;28;20199;-70
2021/09/12 05:30:05;;;;;;;12.90;11.80;;;18.10;99.90;;;;;;5088634;28;20210;-72
2021/09/12 05:32:32;;;;;;;12.23;11.13;;;18.10;99.90;;;;;;5087811;28;20203;-71
2021/09/12 05:34:59;;;;;;;13.70;12.57;;;18.10;99.90;;;;;;5088411;28;20284;-73
2021/09/12 05:37:25;;;;;;;13.00;11.97;;;18.10;99.90;;;;;;5088446;28;20230;-73
2021/09/12 05:39:52;;;;;;;12.70;11.63;;;18.00;99.90;;;;;;5087388;28;20557;-72
2021/09/12 05:42:20;;;;;;;13.27;12.07;;;18.10;99.90;;;;;;5088357;28;20264;-73
2021/09/12 05:44:46;;;;;;;13.03;11.93;;;17.80;99.90;;;;;;5088321;28;20211;-72
2021/09/12 05:47:13;;;;;;;13.37;12.23;;;17.80;99.90;;;;;;5088598;28;20238;-72
2021/09/12 05:49:43;;;;;;;14.47;13.13;;;17.70;99.90;;;;;;5092473;28;20206;-73
2021/09/12 05:52:10;;;;;;;13.90;12.70;;;17.60;99.90;;;;;;5092540;28;20288;-73
2021/09/12 05:54:36;;;;;;;16.90;15.13;;;17.60;99.90;;;;;;5091902;28;20692;-73
2021/09/12 05:57:03;;;;;;;14.47;13.20;;;17.50;99.90;;;;;;5092522;28;20207;-73
2021/09/12 05:59:31;;;;;;;13.97;12.67;;;17.40;99.90;;;;;;5092167;28;20206;-72
2021/09/12 06:01:58;;;;;;;14.50;12.63;;;17.50;99.90;;;;;;5092374;28;20275;-73
2021/09/12 06:04:25;;;;;;;13.57;12.37;;;17.60;99.90;;;;;;5092216;28;20263;-73
2021/09/12 06:06:53;;;;;;;13.40;12.27;;;17.60;99.90;;;;;;5092296;28;20262;-73
2021/09/12 06:09:20;;;;;;;13.77;12.60;;;17.60;99.90;;;;;;5092188;28;20198;-73
2021/09/12 06:11:47;;;;;;;14.63;13.23;;;17.50;99.90;;;;;;5092055;28;20209;-73
2021/09/12 06:14:13;;;;;;;14.60;13.10;;;17.50;99.90;;;;;;5092018;28;20231;-72
2021/09/12 06:16:43;;;;;;;13.30;12.10;;;17.60;99.90;;;;;;5091760;28;20226;-73
2021/09/12 06:19:10;;;;;;;13.33;12.23;;;17.70;99.90;;;;;;5092058;28;20206;-73
2021/09/12 06:21:36;;;;;;;12.73;11.70;;;17.90;99.90;;;;;;5091724;28;20672;-73
2021/09/12 06:24:03;;;;;;;12.93;11.63;;;18.00;99.90;;;;;;5091743;28;20207;-76
2021/09/12 06:26:30;;;;;;;12.23;11.03;;;18.10;99.90;;;;;;5091658;28;20203;-72
2021/09/12 06:28:57;;;;;;;12.40;11.40;;;18.10;99.90;;;;;;5091902;28;20267;-73
2021/09/12 06:31:23;;;;;;;12.53;11.37;;;18.10;99.90;;;;;;5091639;28;20207;-73
2021/09/12 06:33:51;;;;;;;13.73;12.40;;;18.00;99.90;;;;;;5091997;28;20232;-74
2021/09/12 06:36:18;;;;;;;13.90;12.63;;;17.90;99.90;;;;;;5091652;28;20266;-74
2021/09/12 06:38:45;;;;;;;14.03;12.63;;;17.90;99.90;;;;;;5091631;28;20207;-74
2021/09/12 06:41:12;;;;;;;13.80;12.60;;;17.80;99.90;;;;;;5091719;28;20210;-74
2021/09/12 06:43:39;;;;;;;13.73;12.43;;;17.80;99.90;;;;;;5091360;28;20604;-74
2021/09/12 06:46:05;;;;;;;14.10;12.80;;;17.80;99.90;;;;;;5091648;28;20211;-74
2021/09/12 06:48:32;;;;;;;14.00;12.73;;;17.80;99.90;;;;;;5091308;28;20629;-73
2021/09/12 06:51:00;;;;;;;14.80;13.23;;;17.80;99.90;;;;;;5091322;28;20260;-73
2021/09/12 06:53:27;;;;;;;15.57;14.07;;;17.90;99.90;;;;;;5090598;28;20223;-73
2021/09/12 06:55:55;;;;;;;14.33;12.93;;;17.90;99.90;;;;;;5089019;28;20704;-73
2021/09/12 06:58:21;;;;;;;14.53;12.97;;;17.90;99.90;;;;;;5090972;28;20294;-73
2021/09/12 07:00:48;;;;;;;13.83;12.67;;;18.00;99.90;;;;;;5091045;28;20215;-73
2021/09/12 07:03:14;;;;;;;14.97;13.60;;;17.90;99.90;;;;;;5091073;28;21056;-73
2021/09/12 07:05:41;;;;;;;14.13;12.87;;;17.90;99.90;;;;;;5090695;28;20613;-72
2021/09/12 07:08:09;;;;;;;14.00;12.80;;;17.90;99.90;;;;;;5090913;28;20260;-73
2021/09/12 07:10:35;;;;;;;14.67;13.13;;;17.90;99.90;;;;;;5090352;28;20665;-73
2021/09/12 07:13:02;;;;;;;13.00;11.73;;;17.90;99.90;;;;;;5090876;28;20272;-73
2021/09/12 07:15:29;;;;;;;13.20;12.00;;;18.00;99.90;;;;;;5090858;28;20307;-73
2021/09/12 07:17:55;;;;;;;13.17;11.93;;;18.10;99.90;;;;;;5090664;28;20227;-74
2021/09/12 07:20:22;;;;;;;13.10;11.93;;;18.10;99.90;;;;;;5090805;28;20229;-73
2021/09/12 07:22:49;;;;;;;13.57;12.27;;;18.20;99.90;;;;;;5090534;28;20203;-73
2021/09/12 07:25:17;;;;;;;14.20;12.80;;;18.20;99.90;;;;;;5090608;28;20219;-73
2021/09/12 07:27:43;;;;;;;14.23;12.93;;;18.20;99.90;;;;;;5090540;28;20202;-73
2021/09/12 07:30:11;;;;;;;15.33;13.07;;;18.20;99.90;;;;;;5090719;28;20292;-74
2021/09/12 07:32:38;;;;;;;14.57;13.27;;;18.20;99.90;;;;;;5090657;28;20561;-74
2021/09/12 07:35:05;;;;;;;13.90;12.70;;;18.20;99.90;;;;;;5090474;28;20233;-74
2021/09/12 07:37:32;;;;;;;13.63;12.23;;;18.20;99.90;;;;;;5090460;28;20203;-74
2021/09/12 07:39:58;;;;;;;13.77;12.47;;;18.30;99.90;;;;;;5090769;28;20280;-74
2021/09/12 07:42:26;;;;;;;13.50;12.30;;;18.40;99.90;;;;;;5090327;28;20199;-74
2021/09/12 07:44:53;;;;;;;14.60;13.13;;;18.50;99.90;;;;;;5090411;28;20207;-74
2021/09/12 07:47:20;;;;;;;13.30;11.90;;;18.50;99.90;;;;;;5090441;28;20710;-74
2021/09/12 07:49:46;;;;;;;13.87;12.60;;;18.40;99.90;;;;;;5090123;28;20207;-74
2021/09/12 07:52:13;;;;;;;14.00;12.53;;;18.50;99.90;;;;;;5090335;28;20222;-74
2021/09/12 07:54:40;;;;;;;13.77;12.47;;;18.40;99.90;;;;;;5089904;28;20248;-73
2021/09/12 07:57:06;;;;;;;13.17;12.03;;;18.40;99.90;;;;;;5090355;28;20256;-72
2021/09/12 07:59:34;;;;;;;13.47;12.17;;;18.50;99.90;;;;;;5089876;28;20786;-72
2021/09/12 08:02:01;;;;;;;13.23;11.83;;;18.60;99.90;;;;;;5090443;28;20207;-75
2021/09/12 08:04:27;;;;;;;15.97;14.23;;;18.60;99.90;;;;;;5089976;28;20207;-75
2021/09/12 08:06:54;;;;;;;14.80;13.27;;;18.70;99.90;;;;;;5089951;28;20703;-75
2021/09/12 08:09:20;;;;;;;13.23;11.93;;;18.70;99.90;;;;;;5090324;28;20249;-75
2021/09/12 08:11:47;;;;;;;14.33;12.93;;;18.70;99.90;;;;;;5089057;28;20264;-74
2021/09/12 08:14:14;;;;;;;14.17;12.57;;;18.70;99.90;;;;;;5089470;28;20736;-74
2021/09/12 08:16:42;;;;;;;14.60;13.20;;;18.60;99.90;;;;;;5089569;28;20246;-74
2021/09/12 08:19:08;;;;;;;15.70;13.83;;;18.50;99.90;;;;;;5089353;28;20700;-74
2021/09/12 08:21:35;;;;;;;14.33;13.03;;;18.50;99.90;;;;;;5089460;28;20215;-74
2021/09/12 08:24:01;;;;;;;14.97;13.37;;;18.50;99.90;;;;;;5089432;28;20677;-75
2021/09/12 08:26:28;;;;;;;13.77;12.40;;;18.50;99.90;;;;;;5089843;28;20199;-75
2021/09/12 08:28:54;;;;;;;13.73;12.33;;;18.60;99.90;;;;;;5089447;28;20246;-75
2021/09/12 08:31:21;;;;;;;15.90;13.70;;;18.60;99.90;;;;;;5089628;28;20206;-75
2021/09/12 08:33:49;;;;;;;13.63;12.30;;;18.70;99.90;;;;;;5089322;28;20206;-75
2021/09/12 08:36:16;;;;;;;14.07;12.67;;;18.80;99.90;;;;;;5089401;28;20226;-75
2021/09/12 08:38:42;;;;;;;13.70;12.40;;;18.90;99.90;;;;;;5089261;28;20215;-74
2021/09/12 08:41:10;;;;;;;13.93;12.63;;;18.90;99.90;;;;;;5089302;28;20279;-72
2021/09/12 08:43:40;;;;;;;14.57;13.07;;;19.10;99.90;;;;;;5089037;28;20202;-73
2021/09/12 08:46:07;;;;;;;12.90;11.73;;;19.10;99.90;;;;;;5089212;28;20211;-73
2021/09/12 08:48:34;;;;;;;12.80;11.70;;;19.30;99.90;;;;;;5089166;28;20264;-76
2021/09/12 08:51:02;;;;;;;14.87;12.97;;;19.50;99.90;;;;;;5089190;28;20242;-76
2021/09/12 08:53:29;;;;;;;13.70;12.47;;;19.50;99.90;;;;;;5088980;28;20203;-74
2021/09/12 08:55:56;;;;;;;14.40;12.97;;;19.60;99.90;;;;;;5088113;28;20300;-71
2021/09/12 08:58:22;;;;;;;14.23;12.93;;;19.50;99.90;;;;;;5088656;28;20207;-72
2021/09/12 09:00:49;;;;;;;14.83;11.60;;;19.60;99.90;;;;;;5088815;28;20229;-73
2021/09/12 09:03:16;;;;;;;13.43;12.07;;;19.60;99.90;;;;;;5088641;28;20696;-73
2021/09/12 09:05:43;;;;;;;15.23;13.50;;;19.60;99.90;;;;;;5088871;28;20202;-72
2021/09/12 09:08:13;;;;;;;13.67;12.37;;;19.60;99.90;;;;;;5088586;28;20239;-74
2021/09/12 09:10:42;;;;;;;14.47;12.97;;;19.40;99.90;;;;;;5089011;28;20248;-73
2021/09/12 09:13:29;;;;;;;13.40;12.20;;;19.40;99.90;;;;;;5088650;28;20226;-74
2021/09/12 09:15:56;;;;;;;13.83;12.57;;;19.40;99.90;;;;;;5088714;28;20331;-74
2021/09/12 09:18:36;;;;;;;14.70;13.20;;;19.30;99.90;;;;;;5068423;28;20281;-73
2021/09/12 09:21:24;;;;;;;13.83;12.43;;;19.30;99.90;;;;;;5071980;28;20203;-73
2021/09/12 09:26:47;;;;;;;14.13;12.83;;;19.30;99.90;;;;;;5083257;28;20560;-73
2021/09/12 09:29:15;;;;;;;17.03;15.33;;;19.50;99.90;;;;;;5083064;28;20891;-73
2021/09/12 09:31:42;;;;;;;16.50;14.87;;;19.50;99.90;;;;;;5083179;28;20206;-73
2021/09/12 09:34:17;;;;;;;14.53;13.07;;;19.50;99.90;;;;;;5083130;28;20202;-73
2021/09/12 09:36:44;;;;;;;15.40;13.97;;;19.60;99.90;;;;;;5083117;28;20242;-73
2021/09/12 09:39:11;;;;;;;14.40;12.93;;;19.70;99.90;;;;;;5083356;28;20259;-75
2021/09/12 09:41:39;;;;;;;15.20;13.80;;;19.90;99.90;;;;;;5083209;28;20570;-75
2021/09/12 09:44:13;;;;;;;14.40;13.03;;;19.80;99.90;;;;;;5083859;28;20210;-75
2021/09/12 09:46:42;;;;;;;15.03;13.63;;;19.80;99.90;;;;;;5083865;28;20230;-76
2021/09/12 09:49:20;;;;;;;13.20;12.00;;;19.80;99.90;;;;;;5083406;28;20738;-75
2021/09/12 09:51:48;;;;;;;14.43;13.10;;;19.80;99.90;;;;;;5082764;28;20681;-76
2021/09/12 09:54:16;;;;;;;13.40;11.40;;;19.90;99.90;;;;;;5082640;28;20214;-76
2021/09/12 09:56:45;;;;;;;13.90;12.50;;;20.00;99.90;;;;;;5083441;28;20238;-76
2021/09/12 09:59:14;;;;;;;13.27;12.07;;;20.10;99.90;;;;;;5083346;28;20271;-76
2021/09/12 10:01:42;;;;;;;13.17;12.03;;;20.00;99.90;;;;;;5083289;28;20207;-75
2021/09/12 10:04:09;;;;;;;13.20;12.07;;;20.00;99.90;;;;;;5083093;28;20203;-75
2021/09/12 10:06:37;;;;;;;13.40;12.13;;;20.10;99.90;;;;;;5082766;28;20327;-76
2021/09/12 10:09:04;;;;;;;12.50;11.37;;;20.10;99.90;;;;;;5083012;28;20207;-75
2021/09/12 10:11:31;;;;;;;13.03;11.80;;;20.30;99.90;;;;;;5082928;28;20203;-76
2021/09/12 10:13:59;;;;;;;12.47;11.17;;;20.50;99.90;;;;;;5082716;28;20316;-75
2021/09/12 10:16:28;;;;;;;13.80;11.47;;;20.50;99.90;;;;;;5082925;28;20644;-76
2021/09/12 10:18:55;;;;;;;12.00;10.90;;;20.60;99.90;;;;;;5082054;28;20217;-76
2021/09/12 10:21:26;;;;;;;12.30;11.20;;;20.70;99.90;;;;;;5083200;28;20926;-76
2021/09/12 10:24:04;;;;;;;11.67;10.47;;;20.70;99.90;;;;;;5082903;28;20203;-76
2021/09/12 10:26:34;;;;;;;10.77;9.73;;;20.70;99.90;;;;;;5082750;28;20327;-76
2021/09/12 10:29:01;;;;;;;10.93;10.00;;;20.80;99.90;;;;;;5082549;28;20203;-76
2021/09/12 10:31:34;;;;;;;11.17;10.20;;;20.80;99.90;;;;;;5082387;28;20731;-77
2021/09/12 10:34:10;;;;;;;20.40;18.30;;;21.00;99.90;;;;;;5082153;28;20669;-78
2021/09/12 10:36:38;;;;;;;12.73;11.70;;;21.00;99.90;;;;;;5077282;28;20219;-77
2021/09/12 10:39:34;;;;;;;11.17;10.03;;;21.10;99.90;;;;;;5054610;28;20240;-78
2021/09/12 10:42:20;;;;;;;8.80;8.10;;;21.10;99.90;;;;;;5051792;28;20200;-77
2021/09/12 10:45:18;;;;;;;9.20;8.50;;;21.20;99.90;;;;;;5060779;28;20219;-79
2021/09/12 10:47:47;;;;;;;8.23;7.63;;;21.20;99.90;;;;;;5068100;28;20203;-78
2021/09/12 10:50:42;;;;;;;9.03;8.23;;;21.40;99.90;;;;;;5067961;28;20317;-78
2021/09/12 10:53:10;;;;;;;9.43;8.53;;;21.40;99.90;;;;;;5068181;28;20208;-78
2021/09/12 10:55:58;;;;;;;9.77;8.80;;;21.20;99.90;;;;;;5067937;28;20207;-78
2021/09/12 10:58:27;;;;;;;8.73;8.10;;;21.20;99.90;;;;;;5067982;28;20200;-78
2021/09/12 11:00:54;;;;;;;8.20;7.50;;;21.20;99.90;;;;;;5067836;28;20207;-79
2021/09/12 11:03:22;;;;;;;6.80;6.30;;;21.20;99.90;;;;;;5068283;28;20808;-78
2021/09/12 11:05:48;;;;;;;7.67;7.17;;;21.30;99.90;;;;;;5068904;28;20235;-78
2021/09/12 11:08:15;;;;;;;8.40;7.70;;;21.50;99.90;;;;;;5068601;28;20888;-77
2021/09/12 11:10:45;;;;;;;7.73;6.97;;;21.40;99.90;;;;;;5062422;28;20216;-76
2021/09/12 11:13:12;;;;;;;7.70;7.00;;;21.40;99.90;;;;;;5057306;28;20603;-76
2021/09/12 11:15:39;;;;;;;7.20;6.70;;;21.40;99.90;;;;;;5066745;28;20312;-76
2021/09/12 11:18:05;;;;;;;6.80;6.20;;;21.40;99.90;;;;;;5067869;28;20207;-76
2021/09/12 11:20:41;;;;;;;6.73;6.20;;;21.60;99.90;;;;;;5067880;28;20640;-77
2021/09/12 11:23:08;;;;;;;7.80;7.20;;;21.70;99.90;;;;;;5067997;28;20269;-76
2021/09/12 11:25:35;;;;;;;7.50;6.93;;;21.60;99.90;;;;;;5067206;28;20251;-78
2021/09/12 11:28:04;;;;;;;7.13;6.40;;;21.50;99.90;;;;;;5067255;28;20207;-76
2021/09/12 11:30:30;;;;;;;6.47;5.90;;;21.50;99.90;;;;;;5067415;28;20272;-76
2021/09/12 11:32:57;;;;;;;6.33;5.97;;;21.70;99.90;;;;;;5067008;28;20258;-77
2021/09/12 11:35:24;;;;;;;6.27;5.77;;;21.90;99.90;;;;;;5067640;28;20215;-76
2021/09/12 11:38:08;;;;;;;6.27;5.87;;;22.10;99.90;;;;;;5067288;28;20207;-75
2021/09/12 11:40:36;;;;;;;5.97;5.57;;;22.20;99.90;;;;;;5046904;28;20220;-77
2021/09/12 11:43:10;;;;;;;7.20;6.43;;;22.00;99.90;;;;;;5047182;28;20240;-76
2021/09/12 11:45:37;;;;;;;6.87;6.30;;;22.00;99.90;;;;;;5046723;28;20293;-77
2021/09/12 11:48:04;;;;;;;5.90;5.50;;;21.80;99.90;;;;;;5046274;28;20302;-76
2021/09/12 11:50:31;;;;;;;7.33;6.83;;;21.80;99.90;;;;;;5047017;28;20285;-76
2021/09/12 11:52:57;;;;;;;6.60;6.20;;;21.70;99.90;;;;;;5047107;28;20267;-78
2021/09/12 11:55:27;;;;;;;7.00;6.40;;;21.60;99.90;;;;;;5046581;28;20248;-79
2021/09/12 11:58:03;;;;;;;7.53;6.70;;;21.60;99.90;;;;;;5046907;28;20214;-78
2021/09/12 12:00:30;;;;;;;6.77;6.30;;;21.60;99.90;;;;;;5047306;28;20208;-77
2021/09/12 12:02:57;;;;;;;6.77;6.20;;;21.50;99.90;;;;;;5047268;28;20653;-78
2021/09/12 12:05:24;;;;;;;7.23;5.43;;;21.50;99.90;;;;;;5047253;28;20298;-78
2021/09/12 12:07:52;;;;;;;6.00;5.60;;;21.60;99.90;;;;;;5047054;28;20243;-79
2021/09/12 12:10:32;;;;;;;5.03;4.73;;;21.60;99.90;;;;;;5046558;28;20204;-78
2021/09/12 12:12:59;;;;;;;4.80;4.50;;;21.70;99.90;;;;;;5046562;28;20318;-78
2021/09/12 12:15:33;;;;;;;4.60;4.30;;;21.80;99.90;;;;;;5046436;28;20259;-79
2021/09/12 12:17:59;;;;;;;8.87;8.00;;;21.80;99.90;;;;;;5046567;28;20257;-78
2021/09/12 12:20:32;;;;;;;6.13;5.70;;;21.90;99.90;;;;;;5046684;28;20232;-78
2021/09/12 12:23:13;;;;;;;7.30;6.40;;;21.80;99.90;;;;;;5046248;28;20297;-78
2021/09/12 12:25:41;;;;;;;6.47;5.97;;;21.80;99.90;;;;;;5045722;28;20260;-79
2021/09/12 12:28:16;;;;;;;5.30;4.90;;;21.70;99.90;;;;;;5045185;28;20212;-79
2021/09/12 12:30:44;;;;;;;5.90;5.23;;;21.70;99.90;;;;;;5045777;28;20195;-79
2021/09/12 12:33:14;;;;;;;8.10;5.20;;;21.80;99.90;;;;;;5046599;28;20270;-79
2021/09/12 12:35:40;;;;;;;5.23;4.83;;;21.70;99.90;;;;;;5046238;28;20216;-79
2021/09/12 12:38:07;;;;;;;5.43;4.83;;;21.80;99.90;;;;;;5045816;28;20232;-78